createdAt,value
2023-05-06T00:01:57.779Z,100.00
2023-05-06T00:04:26.932Z,100.00
2023-05-06T00:06:56.110Z,100.00
2023-05-06T00:09:24.207Z,100.00
2023-05-06T00:11:52.078Z,100.00
2023-05-06T00:14:19.926Z,100.00
2023-05-06T00:16:47.722Z,100.00
2023-05-06T00:19:15.415Z,100.00
2023-05-06T00:21:44.452Z,100.00
2023-05-06T00:24:12.444Z,100.00
2023-05-06T00:26:40.174Z,100.00
2023-05-06T00:29:07.876Z,100.00
2023-05-06T00:31:35.627Z,100.00
2023-05-06T00:34:03.374Z,100.00
2023-05-06T00:36:31.594Z,100.00
2023-05-06T00:39:01.028Z,100.00
2023-05-06T00:41:32.389Z,100.00
2023-05-06T00:44:00.137Z,100.00
2023-05-06T00:46:28.362Z,100.00
2023-05-06T00:48:56.799Z,100.00
2023-05-06T00:51:24.622Z,100.00
2023-05-06T00:53:52.471Z,100.00
2023-05-06T00:56:21.726Z,100.00
2023-05-06T00:58:49.535Z,100.00
2023-05-06T01:01:17.530Z,100.00
2023-05-06T01:03:45.583Z,100.00
2023-05-06T01:06:21.412Z,100.00
2023-05-06T01:08:58.692Z,100.00
2023-05-06T01:11:38.832Z,100.00
2023-05-06T01:14:15.739Z,100.00
2023-05-06T01:16:44.348Z,100.00
2023-05-06T01:19:19.701Z,100.00
2023-05-06T01:21:48.898Z,100.00
2023-05-06T01:24:17.983Z,100.00
2023-05-06T01:26:45.767Z,100.00
2023-05-06T01:29:13.584Z,100.00
2023-05-06T01:31:49.960Z,100.00
2023-05-06T01:34:27.191Z,100.00
2023-05-06T01:37:05.889Z,100.00
2023-05-06T01:39:35.573Z,100.00
2023-05-06T01:42:04.553Z,100.00
2023-05-06T01:44:34.877Z,100.00
2023-05-06T01:47:03.374Z,100.00
2023-05-06T01:49:31.339Z,100.00
2023-05-06T01:51:59.546Z,100.00
2023-05-06T01:54:27.218Z,100.00
2023-05-06T01:56:56.220Z,100.00
2023-05-06T01:59:24.008Z,100.00
2023-05-06T02:01:51.810Z,100.00
2023-05-06T02:04:19.508Z,100.00
2023-05-06T02:06:47.221Z,100.00
2023-05-06T02:09:14.908Z,100.00
2023-05-06T02:11:42.705Z,100.00
2023-05-06T02:14:11.870Z,100.00
2023-05-06T02:16:39.664Z,100.00
2023-05-06T02:19:07.579Z,100.00
2023-05-06T02:21:35.858Z,100.00
2023-05-06T02:24:03.621Z,100.00
2023-05-06T02:26:31.358Z,100.00
2023-05-06T02:28:59.111Z,100.00
2023-05-06T02:31:28.319Z,100.00
2023-05-06T02:33:56.124Z,100.00
2023-05-06T02:36:23.808Z,100.00
2023-05-06T02:38:51.545Z,100.00
2023-05-06T02:41:19.244Z,100.00
2023-05-06T02:43:47.059Z,100.00
2023-05-06T02:46:14.809Z,100.00
2023-05-06T02:48:43.887Z,100.00
2023-05-06T02:51:11.872Z,100.00
2023-05-06T02:53:39.633Z,100.00
2023-05-06T02:56:07.710Z,100.00
2023-05-06T02:58:35.476Z,100.00
2023-05-06T03:01:03.251Z,100.00
2023-05-06T03:03:31.003Z,100.00
2023-05-06T03:06:00.145Z,100.00
2023-05-06T03:08:27.809Z,100.00
2023-05-06T03:10:55.585Z,100.00
2023-05-06T03:13:23.433Z,100.00
2023-05-06T03:15:53.786Z,100.00
2023-05-06T03:18:21.630Z,99.10
2023-05-06T03:20:50.209Z,100.00
2023-05-06T03:23:19.343Z,100.00
2023-05-06T03:25:47.213Z,100.00
2023-05-06T03:28:15.043Z,100.00
2023-05-06T03:30:42.800Z,100.00
2023-05-06T03:33:10.820Z,100.00
2023-05-06T03:35:38.554Z,100.00
2023-05-06T03:38:06.306Z,100.00
2023-05-06T03:40:35.542Z,100.00
2023-05-06T03:43:03.269Z,100.00
2023-05-06T03:45:30.997Z,100.00
2023-05-06T03:47:58.765Z,100.00
2023-05-06T03:50:26.801Z,100.00
2023-05-06T03:52:54.760Z,100.00
2023-05-06T03:55:22.487Z,100.00
2023-05-06T03:57:51.511Z,100.00
2023-05-06T04:00:19.540Z,100.00
2023-05-06T04:02:47.303Z,100.00
2023-05-06T04:05:15.342Z,100.00
2023-05-06T04:07:43.057Z,100.00
2023-05-06T04:10:11.429Z,100.00
2023-05-06T04:12:39.130Z,99.50
2023-05-06T04:15:09.611Z,99.99
2023-05-06T04:17:37.583Z,100.00
2023-05-06T04:20:07.075Z,100.00
2023-05-06T04:22:34.831Z,100.00
2023-05-06T04:25:02.544Z,100.00
2023-05-06T04:27:32.058Z,99.54
2023-05-06T04:29:59.872Z,100.00
2023-05-06T04:32:29.016Z,100.00
2023-05-06T04:34:57.144Z,100.00
2023-05-06T04:37:25.057Z,100.00
2023-05-06T04:39:52.963Z,100.00
2023-05-06T04:42:20.667Z,100.00
2023-05-06T04:44:48.810Z,100.00
2023-05-06T04:47:16.516Z,100.00
2023-05-06T04:49:45.851Z,99.75
2023-05-06T04:52:13.639Z,100.00
2023-05-06T04:54:42.170Z,100.00
2023-05-06T04:57:11.365Z,100.00
2023-05-06T04:59:39.047Z,100.00
2023-05-06T05:02:06.884Z,100.00
2023-05-06T05:04:34.671Z,100.00
2023-05-06T05:07:03.701Z,100.00
2023-05-06T05:09:31.413Z,99.89
2023-05-06T05:11:59.128Z,100.00
2023-05-06T05:14:26.802Z,99.72
2023-05-06T05:16:54.593Z,100.00
2023-05-06T05:19:22.335Z,100.00
2023-05-06T05:21:50.109Z,99.76
2023-05-06T05:24:19.228Z,100.00
2023-05-06T05:26:48.007Z,100.00
2023-05-06T05:29:15.703Z,100.00
2023-05-06T05:31:43.406Z,100.00
2023-05-06T05:34:11.340Z,99.80
2023-05-06T05:36:39.070Z,99.08
2023-05-06T05:39:06.781Z,100.00
2023-05-06T05:41:35.804Z,100.00
2023-05-06T05:44:03.692Z,98.68
2023-05-06T05:46:31.501Z,100.00
2023-05-06T05:48:59.227Z,99.46
2023-05-06T05:51:26.944Z,98.88
2023-05-06T05:53:54.703Z,100.00
2023-05-06T05:56:22.372Z,99.18
2023-05-06T05:58:51.515Z,99.63
2023-05-06T06:01:19.258Z,99.12
2023-05-06T06:03:47.740Z,99.84
2023-05-06T06:06:15.686Z,99.61
2023-05-06T06:08:43.447Z,98.95
2023-05-06T06:11:11.126Z,99.13
2023-05-06T06:13:38.912Z,98.54
2023-05-06T06:16:08.409Z,96.06
2023-05-06T06:18:36.273Z,96.67
2023-05-06T06:21:04.094Z,97.20
2023-05-06T06:23:31.823Z,96.75
2023-05-06T06:25:59.757Z,96.69
2023-05-06T06:28:27.449Z,97.35
2023-05-06T06:30:55.275Z,96.78
2023-05-06T06:33:24.330Z,95.45
2023-05-06T06:35:52.071Z,95.81
2023-05-06T06:38:20.070Z,96.93
2023-05-06T06:40:47.798Z,95.96
2023-05-06T06:43:15.539Z,95.48
2023-05-06T06:45:43.292Z,96.46
2023-05-06T06:48:11.324Z,96.91
2023-05-06T06:50:40.499Z,94.68
2023-05-06T06:53:08.203Z,95.04
2023-05-06T06:55:36.200Z,93.47
2023-05-06T06:58:04.037Z,93.23
2023-05-06T07:00:31.788Z,91.56
2023-05-06T07:02:59.556Z,93.00
2023-05-06T07:05:27.879Z,91.99
2023-05-06T07:07:57.034Z,91.36
2023-05-06T07:10:24.795Z,90.67
2023-05-06T07:12:52.859Z,91.30
2023-05-06T07:15:20.732Z,89.50
2023-05-06T07:17:48.646Z,88.90
2023-05-06T07:20:16.648Z,89.18
2023-05-06T07:22:45.641Z,90.79
2023-05-06T07:25:15.029Z,90.33
2023-05-06T07:27:42.727Z,89.81
2023-05-06T07:30:11.223Z,88.79
2023-05-06T07:32:40.953Z,90.08
2023-05-06T07:35:10.261Z,87.86
2023-05-06T07:37:38.270Z,86.50
2023-05-06T07:40:07.207Z,87.71
2023-05-06T07:42:36.250Z,89.74
2023-05-06T07:45:04.204Z,91.18
2023-05-06T07:47:33.374Z,90.34
2023-05-06T07:50:01.210Z,90.06
2023-05-06T07:52:29.020Z,90.55
2023-05-06T07:54:56.758Z,88.48
2023-05-06T07:57:24.478Z,89.58
2023-05-06T07:59:53.848Z,90.53
2023-05-06T08:02:21.801Z,89.02
2023-05-06T08:04:51.594Z,88.19
2023-05-06T08:07:19.900Z,88.42
2023-05-06T08:09:47.650Z,88.83
2023-05-06T08:12:15.801Z,87.41
2023-05-06T08:14:43.509Z,89.86
2023-05-06T08:17:14.097Z,88.78
2023-05-06T08:19:41.777Z,89.10
2023-05-06T08:22:09.514Z,89.81
2023-05-06T08:24:37.223Z,89.91
2023-05-06T08:27:05.172Z,89.51
2023-05-06T08:29:33.248Z,89.44
2023-05-06T08:32:01.483Z,90.05
2023-05-06T08:34:30.867Z,89.13
2023-05-06T08:36:58.532Z,88.02
2023-05-06T08:39:27.857Z,91.07
2023-05-06T08:41:57.324Z,91.33
2023-05-06T08:44:26.110Z,92.71
2023-05-06T08:46:54.129Z,93.63
2023-05-06T08:49:21.911Z,92.34
2023-05-06T08:51:52.775Z,92.51
2023-05-06T08:54:20.536Z,95.73
2023-05-06T08:56:53.120Z,97.08
2023-05-06T08:59:25.878Z,98.06
2023-05-06T09:01:54.222Z,98.07
2023-05-06T09:04:22.099Z,99.19
2023-05-06T09:06:51.129Z,100.00
2023-05-06T09:09:18.793Z,98.02
2023-05-06T09:11:48.198Z,98.68
2023-05-06T09:14:17.971Z,96.09
2023-05-06T09:16:48.036Z,96.93
2023-05-06T09:19:17.196Z,97.08
2023-05-06T09:21:47.081Z,97.57
2023-05-06T09:24:17.164Z,97.51
2023-05-06T09:26:46.109Z,97.52
2023-05-06T09:29:14.194Z,100.00
2023-05-06T09:31:43.020Z,98.66
2023-05-06T09:34:10.869Z,97.18
2023-05-06T09:36:38.592Z,96.39
2023-05-06T09:39:06.401Z,96.80
2023-05-06T09:41:36.511Z,95.33
2023-05-06T09:44:05.682Z,94.38
2023-05-06T09:46:33.913Z,94.70
2023-05-06T09:49:02.048Z,91.78
2023-05-06T09:51:32.490Z,91.83
2023-05-06T09:54:01.677Z,92.45
2023-05-06T09:56:31.345Z,92.63
2023-05-06T09:59:04.249Z,90.05
2023-05-06T10:01:36.599Z,90.28
2023-05-06T10:04:09.292Z,85.60
2023-05-06T10:06:39.734Z,85.85
2023-05-06T10:09:09.136Z,86.18
2023-05-06T10:11:37.429Z,84.23
2023-05-06T10:14:08.008Z,84.24
2023-05-06T10:16:37.469Z,85.74
2023-05-06T10:19:08.097Z,82.76
2023-05-06T10:21:40.490Z,84.07
2023-05-06T10:24:12.015Z,83.66
2023-05-06T10:26:41.775Z,85.23
2023-05-06T10:29:12.700Z,84.65
2023-05-06T10:31:47.294Z,79.65
2023-05-06T10:34:16.980Z,82.53
2023-05-06T10:36:46.131Z,83.84
2023-05-06T10:39:14.752Z,84.25
2023-05-06T10:41:42.616Z,83.96
2023-05-06T10:44:12.875Z,83.28
2023-05-06T10:46:58.815Z,83.18
2023-05-06T10:49:26.655Z,84.66
2023-05-06T10:52:13.844Z,80.55
2023-05-06T10:54:52.249Z,80.61
2023-05-06T10:57:22.644Z,83.32
2023-05-06T10:59:54.475Z,82.46
2023-05-06T11:02:23.135Z,82.89
2023-05-06T11:04:52.858Z,78.57
2023-05-06T11:07:24.170Z,79.83
2023-05-06T11:09:55.734Z,80.12
2023-05-06T11:12:23.804Z,80.13
2023-05-06T11:14:52.906Z,79.36
2023-05-06T11:17:34.801Z,79.05
2023-05-06T11:20:22.390Z,76.67
2023-05-06T11:22:50.444Z,78.11
2023-05-06T11:25:43.024Z,74.87
2023-05-06T11:28:12.540Z,76.58
2023-05-06T11:30:43.293Z,73.50
2023-05-06T11:33:19.943Z,72.74
2023-05-06T11:35:47.654Z,72.74
2023-05-06T11:38:15.470Z,72.13
2023-05-06T11:40:43.531Z,72.38
2023-05-06T11:43:12.589Z,73.83
2023-05-06T11:45:46.778Z,74.56
2023-05-06T11:48:14.646Z,74.98
2023-05-06T11:50:47.119Z,75.44
2023-05-06T11:53:16.459Z,74.50
2023-05-06T11:55:45.268Z,74.07
2023-05-06T11:58:16.474Z,73.19
2023-05-06T12:00:51.862Z,70.58
2023-05-06T12:03:20.384Z,72.69
2023-05-06T12:05:49.032Z,71.55
2023-05-06T12:08:26.797Z,72.33
2023-05-06T12:10:57.009Z,76.00
2023-05-06T12:13:25.027Z,76.41
2023-05-06T12:15:55.780Z,74.09
2023-05-06T12:18:24.661Z,75.02
2023-05-06T12:20:55.036Z,72.98
2023-05-06T12:23:23.074Z,72.87
2023-05-06T12:26:01.581Z,70.78
2023-05-06T12:28:29.586Z,72.58
2023-05-06T12:30:58.722Z,73.68
2023-05-06T12:33:26.586Z,71.63
2023-05-06T12:35:57.070Z,71.92
2023-05-06T12:38:25.245Z,72.91
2023-05-06T12:40:55.509Z,72.08
2023-05-06T12:43:30.203Z,71.38
2023-05-06T12:46:06.400Z,71.18
2023-05-06T12:48:34.460Z,71.48
2023-05-06T12:51:02.275Z,68.53
2023-05-06T12:53:34.320Z,68.38
2023-05-06T12:56:02.195Z,69.44
2023-05-06T12:58:29.869Z,70.55
2023-05-06T13:00:57.725Z,67.88
2023-05-06T13:03:27.009Z,69.58
2023-05-06T13:05:54.886Z,68.13
2023-05-06T13:08:22.584Z,69.50
2023-05-06T13:10:50.333Z,68.88
2023-05-06T13:13:18.083Z,68.88
2023-05-06T13:15:45.967Z,66.69
2023-05-06T13:18:13.787Z,68.88
2023-05-06T13:20:42.902Z,68.72
2023-05-06T13:23:10.645Z,71.70
2023-05-06T13:25:48.148Z,70.95
2023-05-06T13:28:26.260Z,72.58
2023-05-06T13:30:53.992Z,72.94
2023-05-06T13:33:21.771Z,74.07
2023-05-06T13:35:50.784Z,76.86
2023-05-06T13:38:18.484Z,77.30
2023-05-06T13:40:48.172Z,76.87
2023-05-06T13:43:16.496Z,75.08
2023-05-06T13:45:44.815Z,73.75
2023-05-06T13:48:12.965Z,77.20
2023-05-06T13:50:42.631Z,76.41
2023-05-06T13:53:11.911Z,76.86
2023-05-06T13:55:40.215Z,75.76
2023-05-06T13:58:08.429Z,73.34
2023-05-06T14:00:36.987Z,73.55
2023-05-06T14:03:05.212Z,77.34
2023-05-06T14:05:33.486Z,77.92
2023-05-06T14:08:01.214Z,75.57
2023-05-06T14:10:30.386Z,73.74
2023-05-06T14:12:58.207Z,74.63
2023-05-06T14:15:26.005Z,77.13
2023-05-06T14:17:54.138Z,77.17
2023-05-06T14:20:21.953Z,77.12
2023-05-06T14:22:49.725Z,77.88
2023-05-06T14:27:46.731Z,76.72
2023-05-06T14:30:15.042Z,78.01
2023-05-06T14:32:43.575Z,77.98
2023-05-06T14:35:11.843Z,79.30
2023-05-06T14:37:39.811Z,82.43
2023-05-06T14:40:10.040Z,80.69
2023-05-06T14:42:38.049Z,75.50
2023-05-06T14:45:08.638Z,79.04
2023-05-06T14:47:36.463Z,80.77
2023-05-06T14:50:04.346Z,78.54
2023-05-06T14:52:32.098Z,78.91
2023-05-06T14:54:59.777Z,75.60
2023-05-06T14:57:27.502Z,76.77
2023-05-06T14:59:55.464Z,76.28
2023-05-06T15:02:24.513Z,76.20
2023-05-06T15:04:52.543Z,76.63
2023-05-06T15:07:20.216Z,76.05
2023-05-06T15:09:47.923Z,76.27
2023-05-06T15:12:16.495Z,76.48
2023-05-06T15:14:44.182Z,75.31
2023-05-06T15:17:13.434Z,78.64
2023-05-06T15:19:42.500Z,76.82
2023-05-06T15:22:10.190Z,78.30
2023-05-06T15:24:37.881Z,81.11
2023-05-06T15:27:05.727Z,78.69
2023-05-06T15:29:33.625Z,80.42
2023-05-06T15:32:01.410Z,81.70
2023-05-06T15:34:29.171Z,80.75
2023-05-06T15:37:01.528Z,79.21
2023-05-06T15:39:29.603Z,81.61
2023-05-06T15:41:59.511Z,80.99
2023-05-06T15:44:27.633Z,79.59
2023-05-06T15:46:55.323Z,78.13
2023-05-06T15:51:53.610Z,76.82
2023-05-06T15:54:22.624Z,77.23
2023-05-06T15:56:50.388Z,75.74
2023-05-06T15:59:18.159Z,77.45
2023-05-06T16:04:16.917Z,76.20
2023-05-06T16:06:44.758Z,78.14
2023-05-06T16:09:12.593Z,77.66
2023-05-06T16:11:41.965Z,79.00
2023-05-06T16:14:09.704Z,77.88
2023-05-06T16:16:37.566Z,78.29
2023-05-06T16:19:05.600Z,77.15
2023-05-06T16:21:33.347Z,76.64
2023-05-06T16:24:02.374Z,76.84
2023-05-06T16:26:30.368Z,76.17
2023-05-06T16:29:01.353Z,76.45
2023-05-06T16:31:29.174Z,76.95
2023-05-06T16:33:57.040Z,76.54
2023-05-06T16:36:24.836Z,76.42
2023-05-06T16:38:52.578Z,77.93
2023-05-06T16:41:20.756Z,77.88
2023-05-06T16:43:48.567Z,77.72
2023-05-06T16:46:17.632Z,77.74
2023-05-06T16:48:45.517Z,79.59
2023-05-06T16:51:15.740Z,79.09
2023-05-06T16:53:43.599Z,81.15
2023-05-06T16:56:11.413Z,82.17
2023-05-06T16:58:39.127Z,81.61
2023-05-06T17:01:08.276Z,81.12
2023-05-06T17:03:38.174Z,80.78
2023-05-06T17:06:06.251Z,82.07
2023-05-06T17:08:36.249Z,80.86
2023-05-06T17:11:07.468Z,80.89
2023-05-06T17:13:35.571Z,82.01
2023-05-06T17:16:03.240Z,81.42
2023-05-06T17:18:31.221Z,78.38
2023-05-06T17:21:00.341Z,77.66
2023-05-06T17:23:28.002Z,77.08
2023-05-06T17:25:57.039Z,76.30
2023-05-06T17:28:24.911Z,77.14
2023-05-06T17:30:52.755Z,76.86
2023-05-06T17:33:20.459Z,77.36
2023-05-06T17:35:48.211Z,78.10
2023-05-06T17:38:17.770Z,78.58
2023-05-06T17:40:45.457Z,79.50
2023-05-06T17:43:13.087Z,80.75
2023-05-06T17:45:41.585Z,82.43
2023-05-06T17:48:09.322Z,85.61
2023-05-06T17:50:36.991Z,85.54
2023-05-06T17:53:04.708Z,83.18
2023-05-06T17:55:33.784Z,86.25
2023-05-06T17:58:01.582Z,87.93
2023-05-06T18:00:29.357Z,85.81
2023-05-06T18:02:57.718Z,88.06
2023-05-06T18:05:26.319Z,87.75
2023-05-06T18:07:54.203Z,87.36
2023-05-06T18:10:21.953Z,87.26
2023-05-06T18:12:51.181Z,87.66
2023-05-06T18:15:18.888Z,88.20
2023-05-06T18:17:46.910Z,87.25
2023-05-06T18:20:14.877Z,87.91
2023-05-06T18:22:43.038Z,88.41
2023-05-06T18:25:11.692Z,85.75
2023-05-06T18:27:39.701Z,90.87
2023-05-06T18:30:09.652Z,86.41
2023-05-06T18:32:37.448Z,88.68
2023-05-06T18:35:05.565Z,89.22
2023-05-06T18:37:33.284Z,89.18
2023-05-06T18:40:01.007Z,87.53
2023-05-06T18:42:28.939Z,88.89
2023-05-06T18:44:56.812Z,88.38
2023-05-06T18:47:26.356Z,87.40
2023-05-06T18:49:54.238Z,86.33
2023-05-06T18:52:22.994Z,87.46
2023-05-06T18:54:50.646Z,86.61
2023-05-06T18:57:19.546Z,86.58
2023-05-06T18:59:47.300Z,87.01
2023-05-06T19:02:15.110Z,86.76
2023-05-06T19:04:44.507Z,87.46
2023-05-06T19:07:13.771Z,84.93
2023-05-06T19:09:43.096Z,82.60
2023-05-06T19:12:11.448Z,88.55
2023-05-06T19:14:39.162Z,84.50
2023-05-06T19:17:06.983Z,85.10
2023-05-06T19:19:34.777Z,83.74
2023-05-06T19:22:04.161Z,82.01
2023-05-06T19:24:31.891Z,81.86
2023-05-06T19:26:59.631Z,82.40
2023-05-06T19:29:27.336Z,85.18
2023-05-06T19:31:55.226Z,83.24
2023-05-06T19:34:22.878Z,82.99
2023-05-06T19:36:50.606Z,83.34
2023-05-06T19:39:21.266Z,85.06
2023-05-06T19:41:49.006Z,83.86
2023-05-06T19:44:16.784Z,85.43
2023-05-06T19:46:44.533Z,85.52
2023-05-06T19:49:12.277Z,86.79
2023-05-06T19:51:39.996Z,85.58
2023-05-06T19:54:07.729Z,86.72
2023-05-06T19:56:36.885Z,85.58
2023-05-06T19:59:04.633Z,89.30
2023-05-06T20:01:32.422Z,87.59
2023-05-06T20:04:00.305Z,88.09
2023-05-06T20:06:29.540Z,87.22
2023-05-06T20:08:57.209Z,90.10
2023-05-06T20:11:25.790Z,90.54
2023-05-06T20:13:54.940Z,88.28
2023-05-06T20:16:23.012Z,87.96
2023-05-06T20:18:51.487Z,89.11
2023-05-06T20:21:19.222Z,88.40
2023-05-06T20:23:46.926Z,89.28
2023-05-06T20:26:14.642Z,87.81
2023-05-06T20:28:42.361Z,88.84
2023-05-06T20:31:11.503Z,89.38
2023-05-06T20:33:39.272Z,89.63
2023-05-06T20:36:07.173Z,89.35
2023-05-06T20:38:34.864Z,90.44
2023-05-06T20:41:03.049Z,90.71
2023-05-06T20:43:31.718Z,89.44
2023-05-06T20:45:59.478Z,92.33
2023-05-06T20:48:30.527Z,91.26
2023-05-06T20:50:58.250Z,90.61
2023-05-06T20:53:27.123Z,92.09
2023-05-06T20:55:54.882Z,93.29
2023-05-06T20:58:22.657Z,92.73
2023-05-06T21:00:50.489Z,92.52
2023-05-06T21:03:18.405Z,92.63
2023-05-06T21:05:47.552Z,91.95
2023-05-06T21:08:15.907Z,92.07
2023-05-06T21:10:43.570Z,92.94
2023-05-06T21:13:11.358Z,93.16
2023-05-06T21:15:39.378Z,93.35
2023-05-06T21:18:07.155Z,93.69
2023-05-06T21:20:35.046Z,93.80
2023-05-06T21:23:04.386Z,94.19
2023-05-06T21:25:32.147Z,97.06
2023-05-06T21:28:03.298Z,94.85
2023-05-06T21:30:31.211Z,94.76
2023-05-06T21:32:59.199Z,96.14
2023-05-06T21:35:26.944Z,96.19
2023-05-06T21:37:54.634Z,95.90
2023-05-06T21:40:23.767Z,96.37
2023-05-06T21:42:51.900Z,96.29
2023-05-06T21:45:20.152Z,97.18
2023-05-06T21:47:48.669Z,96.89
2023-05-06T21:50:16.605Z,96.60
2023-05-06T21:52:44.324Z,96.30
2023-05-06T21:55:12.286Z,97.74
2023-05-06T21:57:41.557Z,95.75
2023-05-06T22:00:12.249Z,96.01
2023-05-06T22:02:41.036Z,98.20
2023-05-06T22:05:09.673Z,97.00
2023-05-06T22:07:37.585Z,97.79
2023-05-06T22:10:06.119Z,99.20
2023-05-06T22:12:33.869Z,99.53
2023-05-06T22:15:03.006Z,97.13
2023-05-06T22:17:32.689Z,97.10
2023-05-06T22:20:02.365Z,94.90
2023-05-06T22:22:31.145Z,94.82
2023-05-06T22:24:58.904Z,97.40
2023-05-06T22:27:26.551Z,98.04
2023-05-06T22:29:54.371Z,97.36
2023-05-06T22:32:23.490Z,98.92
2023-05-06T22:34:51.253Z,98.52
2023-05-06T22:37:19.748Z,98.90
2023-05-06T22:39:47.640Z,100.00
2023-05-06T22:42:15.292Z,100.00
2023-05-06T22:44:43.918Z,100.00
2023-05-06T22:47:11.608Z,99.59
2023-05-06T22:49:40.734Z,100.00
2023-05-06T22:52:08.515Z,100.00
2023-05-06T22:54:36.208Z,100.00
2023-05-06T22:57:03.996Z,100.00
2023-05-06T22:59:31.694Z,100.00
2023-05-06T23:01:59.380Z,100.00
2023-05-06T23:04:27.106Z,100.00
2023-05-06T23:06:57.334Z,100.00
2023-05-06T23:09:25.026Z,100.00
2023-05-06T23:11:52.732Z,100.00
2023-05-06T23:14:20.470Z,100.00
2023-05-06T23:16:48.225Z,100.00
2023-05-06T23:19:15.970Z,99.74
2023-05-06T23:21:44.014Z,100.00
2023-05-06T23:24:13.155Z,100.00
2023-05-06T23:26:40.902Z,100.00
2023-05-06T23:29:11.098Z,100.00
2023-05-06T23:31:38.794Z,100.00
2023-05-06T23:34:06.450Z,100.00
2023-05-06T23:36:35.016Z,100.00
2023-05-06T23:39:03.009Z,100.00
2023-05-06T23:41:32.260Z,100.00
2023-05-06T23:43:59.935Z,100.00
2023-05-06T23:46:28.023Z,99.66
2023-05-06T23:48:55.822Z,100.00
2023-05-06T23:51:23.555Z,100.00
2023-05-06T23:53:51.324Z,100.00
2023-05-06T23:56:20.458Z,100.00
2023-05-06T23:58:49.544Z,100.00
